createdAt,value
2019-04-04T00:01:18.374Z,10.20
2019-04-04T00:03:51.784Z,9.77
2019-04-04T00:06:23.300Z,9.00
2019-04-04T00:08:55.379Z,10.70
2019-04-04T00:11:26.440Z,9.80
2019-04-04T00:13:57.452Z,9.70
2019-04-04T00:16:28.422Z,9.73
2019-04-04T00:18:59.643Z,9.20
2019-04-04T00:21:32.036Z,9.63
2019-04-04T00:24:03.589Z,10.07
2019-04-04T00:26:34.626Z,11.17
2019-04-04T00:29:05.799Z,10.07
2019-04-04T00:31:36.872Z,10.90
2019-04-04T00:34:07.880Z,10.37
2019-04-04T00:36:39.097Z,9.20
2019-04-04T00:39:10.127Z,10.27
2019-04-04T00:41:41.195Z,8.53
2019-04-04T00:44:12.336Z,9.60
2019-04-04T00:46:43.402Z,10.30
2019-04-04T00:49:14.518Z,11.70
2019-04-04T00:51:45.730Z,9.80
2019-04-04T00:54:16.731Z,10.07
2019-04-04T00:56:48.775Z,9.20
2019-04-04T00:59:22.761Z,9.40
2019-04-04T01:01:52.702Z,9.13
2019-04-04T01:04:24.117Z,9.70
2019-04-04T01:06:55.101Z,9.00
2019-04-04T01:09:26.149Z,10.53
2019-04-04T01:11:57.150Z,9.03
2019-04-04T01:14:29.225Z,9.67
2019-04-04T01:17:02.057Z,9.00
2019-04-04T01:19:33.577Z,8.57
2019-04-04T01:22:04.632Z,10.07
2019-04-04T01:24:36.067Z,9.90
2019-04-04T01:27:07.133Z,10.33
2019-04-04T01:29:39.017Z,11.63
2019-04-04T01:32:10.842Z,9.47
2019-04-04T01:34:41.914Z,10.70
2019-04-04T01:37:12.893Z,8.87
2019-04-04T01:39:43.982Z,11.10
2019-04-04T01:42:15.057Z,9.67
2019-04-04T01:44:46.093Z,8.23
2019-04-04T01:47:17.643Z,8.63
2019-04-04T01:49:49.926Z,10.03
2019-04-04T01:52:21.505Z,10.00
2019-04-04T01:54:52.510Z,9.03
2019-04-04T01:57:23.597Z,8.97
2019-04-04T01:59:54.845Z,11.73
2019-04-04T02:02:25.970Z,9.70
2019-04-04T02:04:57.033Z,9.80
2019-04-04T02:07:29.845Z,11.77
2019-04-04T02:10:00.776Z,9.00
2019-04-04T02:12:32.141Z,9.63
2019-04-04T02:15:03.209Z,11.20
2019-04-04T02:17:34.197Z,11.90
2019-04-04T02:20:05.685Z,11.10
2019-04-04T02:22:36.649Z,9.57
2019-04-04T02:25:08.088Z,13.70
2019-04-04T02:27:39.209Z,12.17
2019-04-04T02:30:14.859Z,10.37
2019-04-04T02:32:43.380Z,10.27
2019-04-04T02:35:14.928Z,11.17
2019-04-04T02:37:45.989Z,9.87
2019-04-04T02:40:17.341Z,10.10
2019-04-04T02:42:48.283Z,9.63
2019-04-04T02:45:19.399Z,11.00
2019-04-04T02:47:51.433Z,10.17
2019-04-04T02:50:22.531Z,12.10
2019-04-04T02:52:53.534Z,10.10
2019-04-04T02:55:24.679Z,11.30
2019-04-04T02:57:55.752Z,11.57
2019-04-04T03:00:27.834Z,11.80
2019-04-04T03:02:59.213Z,14.80
2019-04-04T03:05:30.573Z,19.60
2019-04-04T03:08:04.269Z,19.93
2019-04-04T03:10:34.730Z,15.30
2019-04-04T03:13:05.874Z,15.20
2019-04-04T03:15:41.001Z,16.67
2019-04-04T03:18:10.108Z,12.80
2019-04-04T03:20:41.192Z,19.33
2019-04-04T03:23:12.175Z,14.87
2019-04-04T03:25:44.634Z,17.63
2019-04-04T03:28:15.873Z,18.97
2019-04-04T03:30:52.546Z,17.90
2019-04-04T03:33:19.797Z,19.67
2019-04-04T03:35:50.803Z,20.03
2019-04-04T03:38:21.814Z,17.57
2019-04-04T03:40:57.289Z,16.40
2019-04-04T03:43:25.617Z,18.60
2019-04-04T03:46:00.338Z,21.53
2019-04-04T03:48:29.356Z,26.47
2019-04-04T03:51:03.638Z,20.43
2019-04-04T03:53:33.065Z,18.67
2019-04-04T03:56:04.345Z,19.90
2019-04-04T03:58:35.408Z,22.57
2019-04-04T04:01:06.459Z,21.60
2019-04-04T04:03:37.535Z,22.27
2019-04-04T04:06:09.745Z,24.20
2019-04-04T04:08:40.919Z,24.53
2019-04-04T04:11:12.007Z,30.30
2019-04-04T04:13:42.989Z,30.27
2019-04-04T04:16:13.983Z,25.73
2019-04-04T04:18:45.039Z,26.80
2019-04-04T04:21:16.076Z,28.10
2019-04-04T04:23:49.882Z,33.80
2019-04-04T04:26:19.897Z,29.13
2019-04-04T04:28:53.214Z,28.10
2019-04-04T04:31:24.754Z,23.53
2019-04-04T04:33:55.780Z,27.50
2019-04-04T04:36:27.002Z,26.53
2019-04-04T04:39:00.008Z,25.13
2019-04-04T04:41:30.768Z,25.87
2019-04-04T04:44:02.890Z,26.43
2019-04-04T04:46:35.722Z,27.03
2019-04-04T04:49:06.817Z,36.43
2019-04-04T04:51:37.894Z,23.13
2019-04-04T04:54:08.897Z,30.70
2019-04-04T04:56:39.900Z,28.93
2019-04-04T04:59:12.879Z,32.07
2019-04-04T05:01:43.662Z,26.93
2019-04-04T05:04:14.641Z,23.40
2019-04-04T05:06:45.831Z,28.40
2019-04-04T05:09:16.858Z,34.80
2019-04-04T05:11:50.322Z,33.87
2019-04-04T05:14:20.924Z,27.77
2019-04-04T05:16:52.049Z,30.30
2019-04-04T05:19:23.030Z,28.53
2019-04-04T05:21:55.013Z,33.20
2019-04-04T05:24:26.051Z,28.43
2019-04-04T05:26:57.106Z,33.07
2019-04-04T05:29:28.195Z,29.30
2019-04-04T05:31:59.201Z,30.80
2019-04-04T05:34:30.958Z,27.07
2019-04-04T05:37:02.026Z,26.07
2019-04-04T05:39:33.099Z,29.60
2019-04-04T05:42:04.362Z,27.90
2019-04-04T05:44:35.401Z,27.50
2019-04-04T05:47:06.684Z,31.20
2019-04-04T05:49:38.227Z,30.43
2019-04-04T05:52:09.841Z,29.97
2019-04-04T05:54:40.907Z,30.57
2019-04-04T05:57:11.987Z,33.63
2019-04-04T05:59:42.978Z,30.40
2019-04-04T06:02:14.027Z,30.97
2019-04-04T06:04:45.149Z,29.33
2019-04-04T06:07:16.583Z,29.03
2019-04-04T06:09:48.679Z,28.37
2019-04-04T06:12:19.729Z,30.20
2019-04-04T06:14:50.704Z,27.97
2019-04-04T06:17:21.731Z,24.10
2019-04-04T06:19:52.808Z,24.50
2019-04-04T06:22:23.876Z,26.10
2019-04-04T06:24:54.869Z,23.10
2019-04-04T06:27:25.968Z,24.97
2019-04-04T06:29:57.089Z,21.80
2019-04-04T06:32:29.067Z,21.10
2019-04-04T06:35:01.266Z,29.67
2019-04-04T06:37:34.270Z,22.40
2019-04-04T06:40:05.707Z,23.00
2019-04-04T06:42:37.729Z,27.23
2019-04-04T06:45:08.870Z,20.27
2019-04-04T06:47:39.940Z,30.03
2019-04-04T06:50:11.365Z,22.50
2019-04-04T06:52:42.375Z,24.77
2019-04-04T06:55:13.610Z,27.40
2019-04-04T06:57:44.685Z,26.20
2019-04-04T07:00:16.749Z,28.43
2019-04-04T07:02:47.834Z,27.30
2019-04-04T07:05:18.925Z,27.53
2019-04-04T07:07:50.096Z,27.23
2019-04-04T07:10:22.007Z,25.33
2019-04-04T07:13:09.332Z,27.53
2019-04-04T07:15:25.978Z,29.20
2019-04-04T07:17:56.987Z,25.60
2019-04-04T07:20:28.522Z,23.43
2019-04-04T07:22:59.828Z,28.53
2019-04-04T07:25:30.961Z,20.47
2019-04-04T07:28:02.019Z,19.73
2019-04-04T07:30:33.261Z,21.50
2019-04-04T07:33:04.350Z,23.17
2019-04-04T07:35:35.329Z,25.47
2019-04-04T07:38:06.317Z,19.83
2019-04-04T07:40:37.493Z,24.23
2019-04-04T07:43:08.823Z,19.80
2019-04-04T07:45:40.053Z,20.67
2019-04-04T07:48:12.320Z,19.03
2019-04-04T07:50:43.519Z,21.00
2019-04-04T07:53:14.562Z,22.77
2019-04-04T07:55:45.588Z,21.43
2019-04-04T07:58:16.564Z,21.67
2019-04-04T08:00:47.816Z,20.83
2019-04-04T08:03:18.899Z,21.73
2019-04-04T08:05:49.900Z,21.63
2019-04-04T08:08:21.440Z,19.43
2019-04-04T08:10:53.922Z,23.03
2019-04-04T08:13:24.961Z,27.30
2019-04-04T08:15:55.999Z,20.00
2019-04-04T08:18:27.147Z,20.40
2019-04-04T08:20:58.166Z,20.10
2019-04-04T08:23:29.281Z,24.33
2019-04-04T08:26:00.249Z,19.80
2019-04-04T08:28:31.416Z,22.77
2019-04-04T08:31:02.434Z,21.70
2019-04-04T08:33:33.516Z,20.90
2019-04-04T08:36:06.204Z,21.30
2019-04-04T08:38:37.623Z,20.00
2019-04-04T08:41:08.765Z,18.23
2019-04-04T08:43:39.788Z,17.77
2019-04-04T08:46:10.919Z,17.73
2019-04-04T08:48:42.018Z,19.90
2019-04-04T08:51:13.105Z,16.50
2019-04-04T08:53:44.122Z,14.57
2019-04-04T08:56:15.119Z,17.53
2019-04-04T08:58:46.165Z,18.60
2019-04-04T09:01:17.192Z,27.93
2019-04-04T09:03:48.226Z,16.40
2019-04-04T09:06:19.238Z,18.47
2019-04-04T09:08:50.245Z,16.13
2019-04-04T09:11:21.514Z,16.17
2019-04-04T09:13:52.636Z,15.33
2019-04-04T09:16:23.634Z,15.03
2019-04-04T09:18:54.649Z,15.10
2019-04-04T09:21:25.706Z,15.60
2019-04-04T09:23:56.757Z,20.47
2019-04-04T09:26:27.780Z,19.50
2019-04-04T09:28:58.945Z,22.27
2019-04-04T09:31:30.071Z,18.60
2019-04-04T09:34:01.165Z,28.40
2019-04-04T09:36:32.258Z,24.17
2019-04-04T09:39:05.780Z,20.00
2019-04-04T09:41:36.798Z,24.87
2019-04-04T09:44:07.879Z,23.83
2019-04-04T09:46:39.043Z,22.70
2019-04-04T09:49:12.843Z,24.20
2019-04-04T09:51:42.826Z,25.80
2019-04-04T09:54:13.940Z,24.97
2019-04-04T09:56:45.024Z,23.83
2019-04-04T09:59:16.158Z,25.27
2019-04-04T10:01:47.255Z,27.90
2019-04-04T10:04:18.446Z,26.43
2019-04-04T10:06:49.464Z,24.70
2019-04-04T10:09:20.653Z,23.83
2019-04-04T10:11:51.671Z,24.67
2019-04-04T10:14:22.769Z,26.40
2019-04-04T10:16:54.039Z,28.90
2019-04-04T10:19:25.079Z,30.13
2019-04-04T10:21:56.160Z,28.73
2019-04-04T10:24:27.201Z,30.00
2019-04-04T10:26:58.222Z,35.83
2019-04-04T10:29:29.278Z,38.00
2019-04-04T10:32:00.289Z,30.53
2019-04-04T10:34:31.405Z,60.90
2019-04-04T10:37:02.399Z,44.33
2019-04-04T10:39:33.440Z,32.37
2019-04-04T10:42:04.654Z,34.00
2019-04-04T10:44:37.162Z,32.47
2019-04-04T10:47:08.615Z,34.53
2019-04-04T10:49:39.742Z,39.63
2019-04-04T10:52:10.818Z,33.17
2019-04-04T10:54:41.856Z,34.70
2019-04-04T10:57:12.995Z,41.50
2019-04-04T10:59:44.258Z,34.43
2019-04-04T11:02:15.707Z,33.43
2019-04-04T11:04:46.808Z,35.47
2019-04-04T11:07:17.910Z,39.37
2019-04-04T11:09:49.057Z,35.90
2019-04-04T11:12:20.055Z,44.63
2019-04-04T11:14:51.186Z,44.10
2019-04-04T11:17:22.330Z,37.63
2019-04-04T11:19:53.370Z,33.70
2019-04-04T11:22:24.544Z,46.27
2019-04-04T11:24:55.557Z,37.50
2019-04-04T11:27:26.674Z,35.80
2019-04-04T11:29:57.909Z,34.07
2019-04-04T11:32:29.156Z,35.40
2019-04-04T11:35:00.233Z,36.50
2019-04-04T11:37:31.277Z,40.97
2019-04-04T11:40:03.439Z,38.43
2019-04-04T11:42:34.459Z,38.37
2019-04-04T11:45:05.784Z,39.77
2019-04-04T11:47:36.863Z,35.67
2019-04-04T11:50:08.798Z,44.90
2019-04-04T11:52:40.867Z,38.40
2019-04-04T11:55:12.137Z,42.50
2019-04-04T11:57:43.142Z,43.47
2019-04-04T12:00:20.033Z,47.33
2019-04-04T12:02:51.120Z,38.60
2019-04-04T12:05:22.172Z,44.73
2019-04-04T12:07:53.180Z,42.13
2019-04-04T12:10:24.308Z,41.30
2019-04-04T12:12:58.336Z,39.70
2019-04-04T12:15:28.288Z,38.93
2019-04-04T12:17:59.304Z,42.17
2019-04-04T12:20:30.395Z,35.87
2019-04-04T12:23:01.388Z,35.37
2019-04-04T12:25:32.493Z,36.23
2019-04-04T12:28:03.573Z,38.73
2019-04-04T12:30:34.603Z,32.33
2019-04-04T12:33:05.703Z,38.67
2019-04-04T12:35:36.711Z,38.43
2019-04-04T12:38:07.732Z,31.57
2019-04-04T12:40:38.841Z,36.17
2019-04-04T12:43:09.832Z,43.00
2019-04-04T12:45:40.865Z,40.70
2019-04-04T12:48:11.889Z,34.23
2019-04-04T12:50:43.004Z,40.47
2019-04-04T12:53:14.069Z,33.30
2019-04-04T12:55:45.118Z,36.50
2019-04-04T12:58:16.185Z,33.43
2019-04-04T13:00:47.207Z,31.60
2019-04-04T13:03:18.240Z,31.80
2019-04-04T13:05:49.333Z,33.83
2019-04-04T13:08:20.487Z,31.73
2019-04-04T13:10:52.735Z,32.13
2019-04-04T13:13:23.643Z,29.10
2019-04-04T13:15:54.676Z,31.33
2019-04-04T13:18:25.736Z,28.07
2019-04-04T13:20:56.854Z,26.70
2019-04-04T13:23:28.012Z,26.63
2019-04-04T13:26:01.403Z,39.83
2019-04-04T13:28:32.389Z,25.40
2019-04-04T13:31:03.425Z,23.50
2019-04-04T13:33:34.417Z,31.30
2019-04-04T13:36:05.599Z,51.93
2019-04-04T13:38:36.604Z,27.87
2019-04-04T13:41:07.735Z,32.07
2019-04-04T13:43:38.686Z,29.97
2019-04-04T13:46:11.108Z,29.23
2019-04-04T13:48:43.524Z,26.43
2019-04-04T13:51:15.300Z,32.23
2019-04-04T13:53:46.345Z,29.87
2019-04-04T13:56:17.442Z,26.17
2019-04-04T13:58:48.515Z,27.40
2019-04-04T14:01:19.536Z,30.57
2019-04-04T14:03:51.063Z,32.40
2019-04-04T14:06:22.083Z,28.80
2019-04-04T14:08:53.091Z,31.47
2019-04-04T14:11:24.209Z,29.80
2019-04-04T14:13:58.833Z,26.77
2019-04-04T14:16:29.353Z,29.77
2019-04-04T14:19:00.377Z,36.77
2019-04-04T14:21:31.404Z,32.87
2019-04-04T14:24:12.331Z,33.80
2019-04-04T14:26:36.338Z,49.10
2019-04-04T14:29:07.532Z,26.13
2019-04-04T14:31:38.546Z,27.80
2019-04-04T14:34:11.671Z,29.90
2019-04-04T14:36:42.269Z,32.97
2019-04-04T14:39:13.274Z,27.63
2019-04-04T14:41:44.362Z,25.63
2019-04-04T14:44:15.661Z,29.40
2019-04-04T14:46:46.864Z,29.03
2019-04-04T14:49:17.871Z,25.33
2019-04-04T14:51:48.947Z,27.53
2019-04-04T14:54:19.931Z,26.27
2019-04-04T14:56:50.965Z,26.03
2019-04-04T14:59:21.948Z,26.27
2019-04-04T15:01:53.047Z,25.47
2019-04-04T15:04:24.055Z,21.27
2019-04-04T15:06:55.058Z,20.53
2019-04-04T15:09:26.120Z,20.77
2019-04-04T15:11:57.095Z,22.50
2019-04-04T15:14:28.333Z,20.53
2019-04-04T15:16:59.359Z,21.83
2019-04-04T15:19:30.351Z,20.20
2019-04-04T15:22:01.379Z,17.50
2019-04-04T15:24:32.448Z,18.40
2019-04-04T15:27:03.562Z,15.20
2019-04-04T15:29:34.642Z,23.30
2019-04-04T15:32:05.960Z,14.47
2019-04-04T15:34:36.992Z,16.20
2019-04-04T15:37:08.048Z,19.30
2019-04-04T15:39:39.050Z,12.90
2019-04-04T15:42:10.069Z,14.40
2019-04-04T15:44:41.133Z,9.80
2019-04-04T15:47:12.439Z,10.40
2019-04-04T15:49:43.525Z,17.17
2019-04-04T15:52:14.519Z,12.20
2019-04-04T15:54:45.650Z,9.07
2019-04-04T15:57:16.839Z,6.90
2019-04-04T15:59:47.919Z,9.80
2019-04-04T16:02:19.151Z,5.90
2019-04-04T16:04:50.615Z,7.13
2019-04-04T16:07:21.675Z,5.70
2019-04-04T16:09:52.673Z,6.20
2019-04-04T16:12:23.670Z,6.60
2019-04-04T16:14:54.726Z,6.97
2019-04-04T16:17:25.722Z,4.83
2019-04-04T16:19:56.696Z,6.73
2019-04-04T16:22:27.704Z,6.70
2019-04-04T16:24:58.680Z,4.93
2019-04-04T16:27:29.759Z,4.60
2019-04-04T16:30:00.759Z,5.10
2019-04-04T16:32:32.817Z,4.80
2019-04-04T16:35:04.008Z,8.13
2019-04-04T16:37:35.019Z,5.17
2019-04-04T16:40:09.234Z,6.53
2019-04-04T16:42:40.349Z,5.00
2019-04-04T16:45:11.582Z,5.83
2019-04-04T16:47:42.668Z,4.97
2019-04-04T16:50:14.578Z,5.67
2019-04-04T16:52:45.751Z,4.20
2019-04-04T16:55:19.568Z,5.50
2019-04-04T16:57:50.878Z,8.47
2019-04-04T17:00:23.596Z,4.83
2019-04-04T17:02:54.919Z,3.67
2019-04-04T17:05:26.064Z,10.80
2019-04-04T17:07:57.075Z,3.27
2019-04-04T17:10:28.388Z,2.17
2019-04-04T17:12:59.789Z,4.47
2019-04-04T17:15:31.302Z,2.57
2019-04-04T17:18:02.768Z,2.27
2019-04-04T17:20:34.229Z,2.57
2019-04-04T17:23:05.597Z,3.53
2019-04-04T17:25:36.635Z,2.77
2019-04-04T17:28:09.039Z,3.90
2019-04-04T17:30:40.689Z,3.00
2019-04-04T17:33:11.841Z,1.90
2019-04-04T17:35:44.152Z,2.17
2019-04-04T17:38:16.452Z,2.60
2019-04-04T17:40:47.913Z,2.30
2019-04-04T17:43:18.951Z,2.43
2019-04-04T17:45:50.551Z,2.27
2019-04-04T17:48:22.221Z,2.60
2019-04-04T17:50:53.765Z,3.20
2019-04-04T17:53:26.047Z,9.30
2019-04-04T17:55:57.111Z,2.63
2019-04-04T17:58:29.876Z,3.33
2019-04-04T18:01:01.590Z,4.90
2019-04-04T18:03:33.043Z,4.63
2019-04-04T18:06:04.542Z,5.97
2019-04-04T18:08:35.734Z,4.33
2019-04-04T18:11:07.041Z,4.27
2019-04-04T18:13:38.179Z,7.33
2019-04-04T18:16:09.309Z,7.83
2019-04-04T18:18:40.955Z,6.30
2019-04-04T18:21:12.096Z,5.17
2019-04-04T18:23:43.343Z,6.50
2019-04-04T18:26:14.804Z,5.80
2019-04-04T18:28:45.869Z,9.53
2019-04-04T18:31:16.876Z,5.97
2019-04-04T18:33:48.251Z,5.80
2019-04-04T18:36:19.616Z,6.07
2019-04-04T18:38:50.954Z,5.80
2019-04-04T18:41:22.004Z,6.87
2019-04-04T18:43:53.095Z,5.90
2019-04-04T18:46:24.134Z,6.40
2019-04-04T18:48:55.224Z,5.57
2019-04-04T18:51:26.390Z,5.73
2019-04-04T18:53:57.461Z,8.30
2019-04-04T18:56:28.558Z,8.73
2019-04-04T18:58:59.999Z,5.77
2019-04-04T19:01:31.156Z,7.83
2019-04-04T19:04:02.166Z,5.47
2019-04-04T19:06:33.355Z,5.17
2019-04-04T19:09:14.838Z,5.70
2019-04-04T19:11:40.633Z,8.67
2019-04-04T19:14:11.624Z,5.23
2019-04-04T19:16:42.703Z,6.70
2019-04-04T19:19:13.712Z,5.00
2019-04-04T19:21:44.706Z,5.13
2019-04-04T19:24:15.764Z,4.47
2019-04-04T19:26:46.919Z,4.70
2019-04-04T19:29:19.365Z,4.40
2019-04-04T19:31:50.378Z,5.37
2019-04-04T19:34:21.374Z,5.20
2019-04-04T19:36:52.362Z,5.27
2019-04-04T19:39:23.384Z,5.27
2019-04-04T19:41:54.374Z,5.30
2019-04-04T19:44:25.403Z,5.37
2019-04-04T19:46:56.456Z,6.50
2019-04-04T19:49:27.486Z,6.03
2019-04-04T19:51:58.490Z,6.60
2019-04-04T19:54:29.572Z,6.17
2019-04-04T19:57:00.850Z,7.47
2019-04-04T19:59:31.946Z,7.00
2019-04-04T20:02:03.111Z,6.27
2019-04-04T20:04:34.389Z,7.43
2019-04-04T20:07:05.810Z,8.50
2019-04-04T20:09:37.171Z,6.90
2019-04-04T20:12:08.306Z,8.27
2019-04-04T20:14:39.346Z,7.10
2019-04-04T20:17:10.459Z,7.47
2019-04-04T20:19:41.615Z,6.37
2019-04-04T20:22:12.736Z,7.43
2019-04-04T20:24:43.777Z,6.23
2019-04-04T20:27:14.994Z,7.57
2019-04-04T20:29:46.083Z,8.20
2019-04-04T20:32:17.340Z,9.00
2019-04-04T20:34:48.478Z,8.83
2019-04-04T20:37:19.545Z,9.97
2019-04-04T20:39:50.682Z,11.73
2019-04-04T20:42:21.818Z,9.77
2019-04-04T20:44:52.921Z,11.00
2019-04-04T20:47:24.004Z,12.30
2019-04-04T20:49:55.131Z,13.10
2019-04-04T20:52:27.471Z,13.20
2019-04-04T20:54:59.025Z,11.40
2019-04-04T20:57:30.303Z,16.53
2019-04-04T21:00:01.368Z,13.07
2019-04-04T21:02:32.856Z,12.93
2019-04-04T21:05:04.262Z,12.13
2019-04-04T21:07:35.336Z,11.90
2019-04-04T21:10:07.357Z,12.90
2019-04-04T21:12:38.362Z,13.70
2019-04-04T21:15:09.647Z,12.20
2019-04-04T21:17:40.628Z,12.90
2019-04-04T21:20:11.990Z,13.20
2019-04-04T21:22:42.975Z,11.70
2019-04-04T21:25:14.249Z,13.03
2019-04-04T21:27:45.369Z,12.83
2019-04-04T21:30:16.737Z,14.37
2019-04-04T21:32:47.730Z,15.60
2019-04-04T21:35:20.088Z,12.07
2019-04-04T21:37:51.171Z,13.00
2019-04-04T21:40:22.375Z,12.40
2019-04-04T21:42:53.469Z,11.27
2019-04-04T21:45:24.514Z,13.03
2019-04-04T21:47:55.641Z,18.37
2019-04-04T21:50:26.678Z,14.40
2019-04-04T21:52:57.709Z,14.33
2019-04-04T21:55:28.733Z,11.63
2019-04-04T21:57:59.790Z,12.30
2019-04-04T22:00:46.487Z,12.67
2019-04-04T22:03:17.925Z,14.17
2019-04-04T22:05:49.047Z,14.17
2019-04-04T22:08:20.125Z,13.37
2019-04-04T22:10:51.198Z,15.37
2019-04-04T22:13:23.806Z,13.40
2019-04-04T22:15:54.976Z,15.57
2019-04-04T22:18:25.971Z,11.90
2019-04-04T22:20:56.991Z,14.60
2019-04-04T22:23:28.076Z,12.47
2019-04-04T22:25:59.287Z,12.03
2019-04-04T22:28:30.330Z,15.40
2019-04-04T22:31:01.362Z,14.47
2019-04-04T22:33:32.435Z,13.77
2019-04-04T22:36:04.713Z,13.33
2019-04-04T22:38:35.713Z,14.00
2019-04-04T22:41:06.807Z,16.83
2019-04-04T22:43:37.823Z,10.40
2019-04-04T22:46:09.415Z,11.50
2019-04-04T22:48:40.409Z,11.37
2019-04-04T22:51:11.449Z,13.47
2019-04-04T22:53:42.461Z,11.90
2019-04-04T22:56:13.554Z,11.00
2019-04-04T22:58:44.579Z,15.03
2019-04-04T23:01:15.655Z,13.10
2019-04-04T23:03:46.669Z,13.43
2019-04-04T23:06:17.691Z,12.00
2019-04-04T23:08:48.719Z,12.93
2019-04-04T23:11:19.725Z,12.30
2019-04-04T23:13:50.710Z,11.50
2019-04-04T23:16:21.717Z,13.00
2019-04-04T23:18:52.699Z,13.07
2019-04-04T23:21:23.798Z,10.83
2019-04-04T23:23:54.761Z,10.73
2019-04-04T23:26:25.819Z,11.50
2019-04-04T23:28:56.820Z,12.20
2019-04-04T23:31:28.012Z,11.70
2019-04-04T23:33:59.005Z,9.60
2019-04-04T23:36:35.070Z,9.63
2019-04-04T23:39:02.967Z,12.10
2019-04-04T23:41:35.638Z,14.83
2019-04-04T23:44:06.695Z,11.20
2019-04-04T23:46:37.719Z,13.47
2019-04-04T23:49:08.773Z,10.60
2019-04-04T23:51:39.801Z,12.30
2019-04-04T23:54:10.817Z,11.60
2019-04-04T23:56:41.817Z,10.30
2019-04-04T23:59:12.815Z,9.93
